WetterOnline ( https://www.wetteronline.de )

Wetter aktuell Marilleva 900

Aktuelles Wetter: Paganella (2129m)

6-stündlich | Neueste Meldungen
Ortszeit Temperatur Wetter
Mo, 28.09. 20:00 1.0° C bewölkt
Mo, 28.09. 14:00 -0.2° C wolkig
Mo, 28.09. 8:00 -2.8° C bedeckt
Mo, 28.09. 2:00 -1.0° C leicht bewölkt
So, 27.09. 20:00 0.8° C leicht bewölkt
So, 27.09. 14:00 0.8° C Nebel (zunehmend)
So, 27.09. 8:00 -2.8° C leicht bewölkt
So, 27.09. 2:00 -2.2° C wolkenlos
Ortszeit Temperatur Wetter
Mo, 28.09. 21:00 0.6° C wolkig
Mo, 28.09. 20:55 1° C leicht bewölkt
Mo, 28.09. 20:00 1.0° C bewölkt
Mo, 28.09. 19:55 1° C leicht bewölkt
Mo, 28.09. 19:00 1.2° C bewölkt
Mo, 28.09. 18:55 1° C leicht bewölkt
Mo, 28.09. 18:00 1.8° C wolkig
Mo, 28.09. 17:55 2° C leicht bewölkt
Mo, 28.09. 17:00 1.6° C wolkig
Ortszeit Relative Feuchte Sichtweite
Mo, 28.09. 20:00 71% 60 km
Mo, 28.09. 14:00 84% 55 km
Mo, 28.09. 8:00 100% 20 km
Mo, 28.09. 2:00 68% 45 km
So, 27.09. 20:00 82% 20 km
So, 27.09. 14:00 82% 0.6 km
So, 27.09. 8:00 88% 35 km
So, 27.09. 2:00 52% 50 km
Ortszeit Relative Feuchte Sichtweite
Mo, 28.09. 21:00 78% 50 km
Mo, 28.09. 20:55 75% >10 km
Mo, 28.09. 20:00 71% 60 km
Mo, 28.09. 19:55 69% >10 km
Mo, 28.09. 19:00 69% 50 km
Mo, 28.09. 18:55 69% >10 km
Mo, 28.09. 18:00 72% 50 km
Mo, 28.09. 17:55 69% >10 km
Mo, 28.09. 17:00 69% 60 km
Ortszeit Niederschlagsmenge Niederschlagsart
Mo, 28.09. 20:00 0.4 l/m2 in 12 Std. -
Mo, 28.09. 14:00 0.4 l/m2 in 6 Std. Schnee
Mo, 28.09. 8:00 0.0 l/m2 in 12 Std. -
Mo, 28.09. 2:00 0.0 l/m2 in 6 Std. -
So, 27.09. 20:00 0.0 l/m2 in 12 Std. Nebel
So, 27.09. 14:00 0.0 l/m2 in 6 Std. Nebel
So, 27.09. 8:00 0.0 l/m2 in 12 Std. -
So, 27.09. 2:00 0.0 l/m2 in 6 Std. -
Ortszeit Niederschlagsmenge Niederschlagsart
Mo, 28.09. 21:00 keine Meldung -
Mo, 28.09. 20:55 keine Meldung -
Mo, 28.09. 20:00 keine Meldung -
Mo, 28.09. 19:55 keine Meldung -
Mo, 28.09. 19:00 keine Meldung -
Mo, 28.09. 18:55 keine Meldung -
Mo, 28.09. 18:00 keine Meldung -
Mo, 28.09. 17:55 keine Meldung -
Mo, 28.09. 17:00 keine Meldung -
Ortszeit Stärke Spitze Richtung
km/h Bft. km/h Grad Sektor
Mo, 28.09. 20:00 13 3 - 360° N
Mo, 28.09. 14:00 11 2 - 330° NW
Mo, 28.09. 8:00 41 6 - 350° N
Mo, 28.09. 2:00 26 4 - 360° N
So, 27.09. 20:00 11 2 - 360° N
So, 27.09. 14:00 9 2 - 180° S
So, 27.09. 8:00 11 2 - 180° S
So, 27.09. 2:00 9 2 - 360° N
Ortszeit Stärke Spitze Richtung
km/h Bft. km/h Grad Sektor
Mo, 28.09. 21:00 15 3 - 360° N
Mo, 28.09. 20:55 15 3 - 360° N
Mo, 28.09. 20:00 13 3 - 360° N
Mo, 28.09. 19:55 13 3 - 360° N
Mo, 28.09. 19:00 15 3 - 360° N
Mo, 28.09. 18:55 15 3 - 360° N
Mo, 28.09. 18:00 0 0 - - -
Mo, 28.09. 17:55 0 0 - - -
Mo, 28.09. 17:00 0 0 - - -
Ortszeit Untergrenze Bedeckung Gattung
total tief tief mittel hoch
Mo, 28.09. 20:00 600 m 8/8 3/8 Sc Ac -
Mo, 28.09. 14:00 600 m 7/8 4/8 Sc Ac Ci
Mo, 28.09. 8:00 600 m 8/8 2/8 Sc Ns -
Mo, 28.09. 2:00 1800 m 6/8 2/8 - Ac Cs
So, 27.09. 20:00 240 m 5/8 3/8 Cu Ac -
So, 27.09. 14:00 <30 m - 0/8 - - -
So, 27.09. 8:00 90 m 4/8 2/8 Sc Ac Ci
So, 27.09. 2:00 - 0/8 0/8 - - -
Ortszeit Bedeckungsgrad in Achtel und Wolkenuntergrenze
Mo, 28.09. 21:00 3(600m) 5(1800m)
Mo, 28.09. 20:55 3-4(600m)
Mo, 28.09. 20:00 3(600m) 6(1800m)
Mo, 28.09. 19:55 3-4(600m)
Mo, 28.09. 19:00 1(390m) 3(600m) 5(1800m)
Mo, 28.09. 18:55 1-2(390m) 3-4(600m)
Mo, 28.09. 18:00 1(390m) 4(600m)
Mo, 28.09. 17:55 1-2(390m) 3-4(600m) 1-2(5100m)
Mo, 28.09. 17:00 1(390m) 4(600m)
Ortszeit Stationsdruck (hPa) Tendenz (hPa in 3 Std.)
Mo, 28.09. 20:00 780 + 1,9
Mo, 28.09. 14:00 777 + 1,9
Mo, 28.09. 8:00 773 0,0
Mo, 28.09. 2:00 774 - 1,0
So, 27.09. 20:00 775 + 0,1
So, 27.09. 14:00 775 + 0,9
So, 27.09. 8:00 772 0,0
So, 27.09. 2:00 772 + 0,8
Ortszeit Stationsdruck (hPa) Tendenz (hPa in 3 Std.)
Mo, 28.09. 21:00 781 + 2,3
Mo, 28.09. 20:55 - keine Meldung
Mo, 28.09. 20:00 780 + 1,9
Mo, 28.09. 19:55 - keine Meldung
Mo, 28.09. 19:00 779 + 1,2
Mo, 28.09. 18:55 - keine Meldung
Mo, 28.09. 18:00 779 + 1,2
Mo, 28.09. 17:55 - keine Meldung
Mo, 28.09. 17:00 778 + 1,2
Ortszeit Schneehöhe (cm)
Mo, 28.09. 20:00 -
Mo, 28.09. 14:00 -
Mo, 28.09. 8:00 -
Mo, 28.09. 2:00 -
So, 27.09. 20:00 -
So, 27.09. 14:00 -
So, 27.09. 8:00 0
So, 27.09. 2:00 -
Ortszeit Schneehöhe (cm)
Mo, 28.09. 21:00 -
Mo, 28.09. 20:55 -
Mo, 28.09. 20:00 -
Mo, 28.09. 19:55 -
Mo, 28.09. 19:00 -
Mo, 28.09. 18:55 -
Mo, 28.09. 18:00 -
Mo, 28.09. 17:55 -
Mo, 28.09. 17:00 -
Link zu dieser Seite / Seite empfehlen

Das Wetter in ...